Time;durP1;ratioP1;P1;durP2;ratioP2;P2;SDS_P1;SDS_P2;PMS_P1;PMS_P2;Temp;Humidity;BMP_temperature;BMP_pressure;BME280_temperature;BME280_humidity;BME280_pressure;Samples;Min_cycle;Max_cycle;Signal;HPM_P1;HPM_P2
2021/09/19 00:00:36;;;;;;;7.28;3.90;;;;;;;;;;5111267;28;20426;-66
2021/09/19 00:03:02;;;;;;;6.82;3.63;;;;;;;;;;5110723;28;20114;-69
2021/09/19 00:06:31;;;;;;;6.60;4.18;;;;;;;;;;5111483;27;20784;-68
2021/09/19 00:08:57;;;;;;;7.93;4.53;;;;;;;;;;5112149;28;20423;-69
2021/09/19 00:11:23;;;;;;;7.72;4.07;;;;;;;;;;5109565;28;20023;-69
2021/09/19 00:16:46;;;;;;;8.32;3.80;;;;;;;;;;5111633;27;20524;-69
2021/09/19 00:20:51;;;;;;;7.05;4.00;;;;;;;;;;5131875;27;20317;-67
2021/09/19 00:23:43;;;;;;;7.82;3.70;;;;;;;;;;5111587;27;20401;-68
2021/09/19 00:26:33;;;;;;;6.68;4.20;;;;;;;;;;5111461;27;20469;-67
2021/09/19 00:31:10;;;;;;;8.02;4.10;;;;;;;;;;5110879;27;20509;-66
2021/09/19 00:34:24;;;;;;;7.38;4.20;;;;;;;;;;5131643;27;20309;-66
2021/09/19 00:36:50;;;;;;;7.78;4.82;;;;;;;;;;5111242;28;20392;-66
2021/09/19 00:39:16;;;;;;;8.52;4.13;;;;;;;;;;5110928;28;20044;-67
2021/09/19 00:42:14;;;;;;;7.05;4.50;;;;;;;;;;5111386;27;20469;-66
2021/09/19 00:44:41;;;;;;;8.30;5.18;;;;;;;;;;5110992;28;20081;-66
2021/09/19 00:47:29;;;;;;;9.88;5.07;;;;;;;;;;5111621;27;20777;-65
2021/09/19 00:49:55;;;;;;;7.43;4.13;;;;;;;;;;5111237;28;20507;-65
2021/09/19 00:52:56;;;;;;;10.10;4.47;;;;;;;;;;5111006;27;20385;-66
2021/09/19 00:55:22;;;;;;;8.43;4.45;;;;;;;;;;5109934;28;20063;-67
2021/09/19 00:57:50;;;;;;;7.85;4.57;;;;;;;;;;5111276;28;20081;-67
2021/09/19 01:00:17;;;;;;;8.25;4.68;;;;;;;;;;5110733;28;20050;-67
2021/09/19 01:05:06;;;;;;;10.77;4.68;;;;;;;;;;5111910;27;20473;-65
2021/09/19 01:07:32;;;;;;;7.40;4.63;;;;;;;;;;5110793;28;20031;-66
2021/09/19 01:17:24;;;;;;;7.57;4.80;;;;;;;;;;5111965;27;20749;-66
2021/09/19 01:20:46;;;;;;;6.82;4.35;;;;;;;;;;5111241;27;20412;-67
2021/09/19 01:23:14;;;;;;;7.75;4.10;;;;;;;;;;5127071;28;20024;-67
2021/09/19 01:25:41;;;;;;;8.45;4.65;;;;;;;;;;5111138;28;20473;-67
2021/09/19 01:28:07;;;;;;;8.63;5.43;;;;;;;;;;5110805;28;20028;-67
2021/09/19 01:32:44;;;;;;;9.35;5.60;;;;;;;;;;5111905;27;20738;-66
2021/09/19 01:37:27;;;;;;;7.35;4.57;;;;;;;;;;5111321;27;20396;-66
2021/09/19 01:42:02;;;;;;;8.00;4.63;;;;;;;;;;5111324;27;20409;-66
2021/09/19 01:46:15;;;;;;;8.23;4.60;;;;;;;;;;5111389;27;20466;-65
2021/09/19 01:48:42;;;;;;;8.07;4.30;;;;;;;;;;5111077;28;20076;-65
2021/09/19 01:51:09;;;;;;;6.18;3.70;;;;;;;;;;5111166;28;20394;-66
2021/09/19 01:53:35;;;;;;;8.27;4.53;;;;;;;;;;5111082;28;20023;-66
2021/09/19 01:56:02;;;;;;;8.30;4.10;;;;;;;;;;5110726;28;20023;-66
2021/09/19 01:58:28;;;;;;;8.15;3.95;;;;;;;;;;5111070;28;20415;-66
2021/09/19 02:00:55;;;;;;;9.77;4.95;;;;;;;;;;5111103;28;20087;-66
2021/09/19 02:07:51;;;;;;;9.65;4.40;;;;;;;;;;5112039;27;20392;-66
2021/09/19 02:10:18;;;;;;;7.47;4.15;;;;;;;;;;5110854;28;20051;-66
2021/09/19 02:12:45;;;;;;;7.40;4.00;;;;;;;;;;5111157;28;20383;-66
2021/09/19 02:15:13;;;;;;;8.48;4.75;;;;;;;;;;5111357;28;20031;-66
2021/09/19 02:17:39;;;;;;;7.63;4.38;;;;;;;;;;5109350;28;20065;-65
2021/09/19 02:20:06;;;;;;;6.30;3.95;;;;;;;;;;5111303;28;20066;-65
2021/09/19 02:24:08;;;;;;;9.10;4.85;;;;;;;;;;5111167;27;20757;-66
2021/09/19 02:26:34;;;;;;;7.45;4.75;;;;;;;;;;5109860;28;20119;-66
2021/09/19 02:30:18;;;;;;;10.63;4.97;;;;;;;;;;5111344;27;20769;-66
2021/09/19 02:32:44;;;;;;;8.85;4.60;;;;;;;;;;5111190;28;20020;-66
2021/09/19 02:35:11;;;;;;;7.75;4.30;;;;;;;;;;5111205;28;20020;-66
2021/09/19 02:37:38;;;;;;;6.35;3.90;;;;;;;;;;5109425;28;20023;-66
2021/09/19 02:40:05;;;;;;;6.90;3.95;;;;;;;;;;5111116;28;20073;-66
2021/09/19 02:45:18;;;;;;;6.35;4.22;;;;;;;;;;5111142;27;20462;-66
2021/09/19 02:47:45;;;;;;;6.72;3.80;;;;;;;;;;5109909;28;20020;-66
2021/09/19 02:50:22;;;;;;;5.63;3.50;;;;;;;;;;5071039;28;20437;-66
2021/09/19 02:52:48;;;;;;;7.63;4.47;;;;;;;;;;5070215;28;20029;-67
2021/09/19 02:55:15;;;;;;;8.07;4.03;;;;;;;;;;5070567;28;20033;-67
2021/09/19 02:57:42;;;;;;;6.70;3.90;;;;;;;;;;5069291;28;20116;-67
2021/09/19 03:00:10;;;;;;;7.88;4.65;;;;;;;;;;5070068;28;20477;-67
2021/09/19 03:02:36;;;;;;;7.88;4.22;;;;;;;;;;5070456;28;20059;-68
2021/09/19 03:06:26;;;;;;;6.93;4.55;;;;;;;;;;5111110;27;20389;-66
2021/09/19 03:08:52;;;;;;;7.22;4.22;;;;;;;;;;5111401;28;20410;-66
2021/09/19 03:11:18;;;;;;;6.63;4.00;;;;;;;;;;5111173;28;20028;-66
2021/09/19 03:13:45;;;;;;;6.40;3.95;;;;;;;;;;5110768;28;20023;-66
2021/09/19 03:16:12;;;;;;;6.18;3.40;;;;;;;;;;5111192;28;20016;-66
2021/09/19 03:18:38;;;;;;;5.85;3.47;;;;;;;;;;5111024;28;20024;-66
2021/09/19 03:21:04;;;;;;;6.43;3.80;;;;;;;;;;5110563;28;20024;-66
2021/09/19 03:25:16;;;;;;;7.18;4.30;;;;;;;;;;5111468;27;20400;-66
2021/09/19 03:27:43;;;;;;;6.57;3.90;;;;;;;;;;5110866;28;20026;-66
2021/09/19 03:31:04;;;;;;;7.13;4.38;;;;;;;;;;5111585;27;20393;-66
2021/09/19 03:34:24;;;;;;;7.82;4.60;;;;;;;;;;5110961;27;20400;-66
2021/09/19 03:37:05;;;;;;;7.40;4.38;;;;;;;;;;5131965;27;20112;-66
2021/09/19 03:39:32;;;;;;;6.05;3.67;;;;;;;;;;5092945;28;20482;-66
2021/09/19 03:41:58;;;;;;;7.65;3.88;;;;;;;;;;5110761;28;20051;-66
2021/09/19 03:46:09;;;;;;;9.30;3.83;;;;;;;;;;5070976;28;20383;-66
2021/09/19 03:53:48;;;;;;;6.53;3.42;;;;;;;;;;5111624;27;20309;-65
2021/09/19 03:57:47;;;;;;;7.63;4.18;;;;;;;;;;5132104;27;20309;-68
2021/09/19 04:01:08;;;;;;;8.52;4.88;;;;;;;;;;5131938;27;20316;-68
2021/09/19 04:03:35;;;;;;;8.02;4.45;;;;;;;;;;5110859;28;20023;-66
2021/09/19 04:06:01;;;;;;;7.00;4.32;;;;;;;;;;5111134;28;20020;-66
2021/09/19 04:09:53;;;;;;;9.52;5.00;;;;;;;;;;5111114;27;20385;-66
2021/09/19 04:12:19;;;;;;;6.32;3.40;;;;;;;;;;5111233;28;20027;-68
2021/09/19 04:14:45;;;;;;;7.90;4.13;;;;;;;;;;5109931;28;20100;-66
2021/09/19 04:17:11;;;;;;;6.63;3.80;;;;;;;;;;5110763;28;20069;-66
2021/09/19 04:19:38;;;;;;;9.27;4.38;;;;;;;;;;5111094;28;20027;-66
2021/09/19 04:22:04;;;;;;;8.32;4.78;;;;;;;;;;5110949;28;20121;-66
2021/09/19 04:24:30;;;;;;;7.60;4.47;;;;;;;;;;5110641;28;20016;-66
2021/09/19 04:26:56;;;;;;;8.55;4.80;;;;;;;;;;5111264;28;20094;-68
2021/09/19 04:31:26;;;;;;;7.72;4.32;;;;;;;;;;5110993;27;20404;-67
2021/09/19 04:33:52;;;;;;;8.52;4.18;;;;;;;;;;5111261;28;20027;-66
2021/09/19 04:36:18;;;;;;;8.20;4.60;;;;;;;;;;5111486;28;20480;-67
2021/09/19 04:38:44;;;;;;;7.13;4.30;;;;;;;;;;5110788;28;20024;-67
2021/09/19 04:41:10;;;;;;;7.68;4.53;;;;;;;;;;5111128;28;20070;-66
2021/09/19 04:45:51;;;;;;;9.05;4.97;;;;;;;;;;5111367;27;20521;-68
2021/09/19 04:51:17;;;;;;;10.35;5.78;;;;;;;;;;5131704;27;20668;-69
2021/09/19 04:59:40;;;;;;;9.15;4.43;;;;;;;;;;5110899;27;20397;-68
2021/09/19 05:02:06;;;;;;;9.13;5.10;;;;;;;;;;5111219;28;20388;-68
2021/09/19 05:04:33;;;;;;;12.52;5.47;;;;;;;;;;5109814;28;20062;-66
2021/09/19 05:06:59;;;;;;;10.20;5.50;;;;;;;;;;5111482;28;20140;-66
2021/09/19 05:11:21;;;;;;;7.85;4.65;;;;;;;;;;5111996;27;20396;-66
2021/09/19 05:14:27;;;;;;;9.75;5.38;;;;;;;;;;5111480;27;21009;-66
2021/09/19 05:16:53;;;;;;;8.40;4.95;;;;;;;;;;5109962;28;20024;-66
2021/09/19 05:21:14;;;;;;;9.85;4.47;;;;;;;;;;5112086;27;20450;-66
2021/09/19 05:23:40;;;;;;;8.15;4.50;;;;;;;;;;5111317;28;20030;-66
2021/09/19 05:26:07;;;;;;;6.18;3.83;;;;;;;;;;5110882;28;20392;-66
2021/09/19 05:31:59;;;;;;;12.70;8.68;;;;;;;;;;5111386;27;20404;-66
2021/09/19 05:36:15;;;;;;;18.70;8.77;;;;;;;;;;5111927;27;20409;-66
2021/09/19 05:38:42;;;;;;;13.02;7.28;;;;;;;;;;5111318;28;20107;-68
2021/09/19 05:41:08;;;;;;;10.90;6.43;;;;;;;;;;5110850;28;20031;-69
2021/09/19 05:44:44;;;;;;;11.52;4.93;;;;;;;;;;5112176;27;20389;-68
2021/09/19 05:48:06;;;;;;;7.82;4.95;;;;;;;;;;5111174;27;20389;-69
2021/09/19 05:50:32;;;;;;;9.27;4.80;;;;;;;;;;5111378;28;20020;-69
2021/09/19 05:52:59;;;;;;;7.80;4.60;;;;;;;;;;5111340;28;20057;-68
2021/09/19 05:56:11;;;;;;;9.02;5.22;;;;;;;;;;5111067;27;20453;-68
2021/09/19 05:59:39;;;;;;;11.57;5.15;;;;;;;;;;5112155;27;20443;-69
2021/09/19 06:02:05;;;;;;;10.40;5.95;;;;;;;;;;5110929;28;20384;-68
2021/09/19 06:09:27;;;;;;;8.00;4.93;;;;;;;;;;5111108;27;20515;-66
2021/09/19 06:11:53;;;;;;;8.00;4.75;;;;;;;;;;5110070;28;20567;-67
2021/09/19 06:14:20;;;;;;;8.02;4.68;;;;;;;;;;5111249;28;20051;-67
2021/09/19 06:16:59;;;;;;;8.48;4.65;;;;;;;;;;5110976;27;20466;-67
2021/09/19 06:21:53;;;;;;;8.35;5.15;;;;;;;;;;5111890;27;20469;-68
2021/09/19 06:25:17;;;;;;;16.95;6.97;;;;;;;;;;5111419;27;20454;-67
2021/09/19 06:29:40;;;;;;;10.23;5.28;;;;;;;;;;5111556;27;20393;-67
2021/09/19 06:32:16;;;;;;;8.65;5.32;;;;;;;;;;5111414;27;20521;-67
2021/09/19 06:34:42;;;;;;;9.60;5.53;;;;;;;;;;5111551;28;20015;-67
2021/09/19 06:38:10;;;;;;;12.20;5.75;;;;;;;;;;5110929;27;20388;-67
2021/09/19 06:40:53;;;;;;;10.50;6.65;;;;;;;;;;5111598;27;20381;-66
2021/09/19 06:43:20;;;;;;;9.07;6.20;;;;;;;;;;5111404;28;20032;-67
2021/09/19 06:46:23;;;;;;;8.50;5.25;;;;;;;;;;5111338;27;20820;-68
2021/09/19 06:48:49;;;;;;;9.07;5.22;;;;;;;;;;5110005;28;20043;-67
2021/09/19 06:51:16;;;;;;;8.43;5.30;;;;;;;;;;5109462;28;20435;-67
2021/09/19 06:53:42;;;;;;;9.23;5.53;;;;;;;;;;5111564;28;20107;-67
2021/09/19 06:56:08;;;;;;;12.25;6.57;;;;;;;;;;5109956;28;20020;-67
2021/09/19 07:01:01;;;;;;;9.73;5.57;;;;;;;;;;5111780;27;20454;-66
2021/09/19 07:03:36;;;;;;;10.13;6.05;;;;;;;;;;5112023;27;20393;-66
2021/09/19 07:06:03;;;;;;;9.20;5.95;;;;;;;;;;5110936;28;20020;-67
2021/09/19 07:08:29;;;;;;;8.90;4.78;;;;;;;;;;5111322;28;20034;-66
2021/09/19 07:10:55;;;;;;;8.35;5.32;;;;;;;;;;5110035;28;20031;-66
2021/09/19 07:14:51;;;;;;;10.50;6.30;;;;;;;;;;5112121;27;20396;-66
2021/09/19 07:17:37;;;;;;;8.00;4.93;;;;;;;;;;5112134;27;20393;-66
2021/09/19 07:21:01;;;;;;;8.88;5.63;;;;;;;;;;5111712;27;20993;-66
2021/09/19 07:23:28;;;;;;;9.63;5.55;;;;;;;;;;5127067;28;20035;-67
2021/09/19 07:25:54;;;;;;;8.20;4.93;;;;;;;;;;5110827;28;20525;-66
2021/09/19 07:28:20;;;;;;;9.93;5.03;;;;;;;;;;5127039;28;20089;-66
2021/09/19 07:30:46;;;;;;;7.30;4.22;;;;;;;;;;5111117;28;20016;-67
2021/09/19 07:33:13;;;;;;;8.73;4.50;;;;;;;;;;5110919;28;20032;-67
2021/09/19 07:35:39;;;;;;;9.00;4.18;;;;;;;;;;5110953;28;20047;-67
2021/09/19 07:38:05;;;;;;;10.38;5.88;;;;;;;;;;5111014;28;20032;-67
2021/09/19 07:40:31;;;;;;;10.02;5.53;;;;;;;;;;5110472;28;20040;-67
2021/09/19 07:42:59;;;;;;;12.85;8.93;;;;;;;;;;5111112;28;20027;-67
2021/09/19 07:45:27;;;;;;;10.35;5.05;;;;;;;;;;5110657;28;20368;-67
2021/09/19 07:48:57;;;;;;;8.73;4.68;;;;;;;;;;5111879;27;20470;-66
2021/09/19 07:51:23;;;;;;;9.40;4.75;;;;;;;;;;5111420;28;20107;-66
2021/09/19 07:53:50;;;;;;;8.80;4.57;;;;;;;;;;5110900;28;20027;-66
2021/09/19 07:56:17;;;;;;;7.45;4.13;;;;;;;;;;5111227;28;20065;-66
2021/09/19 07:58:43;;;;;;;7.75;4.30;;;;;;;;;;5111156;28;20081;-66
2021/09/19 08:01:09;;;;;;;6.10;3.72;;;;;;;;;;5110671;28;20104;-66
2021/09/19 08:03:35;;;;;;;9.02;4.40;;;;;;;;;;5111092;28;20016;-66
2021/09/19 08:06:01;;;;;;;9.05;4.32;;;;;;;;;;5111082;28;20028;-67
2021/09/19 08:08:27;;;;;;;10.27;4.00;;;;;;;;;;5110497;28;20392;-67
2021/09/19 08:11:16;;;;;;;7.85;3.60;;;;;;;;;;5070728;28;20496;-68
2021/09/19 08:13:42;;;;;;;6.82;4.05;;;;;;;;;;5070662;28;20047;-67
2021/09/19 08:16:56;;;;;;;9.35;4.00;;;;;;;;;;5111531;27;20434;-68
2021/09/19 08:19:52;;;;;;;9.20;4.88;;;;;;;;;;5111583;27;20388;-66
2021/09/19 08:22:18;;;;;;;8.80;5.10;;;;;;;;;;5110865;28;20031;-67
2021/09/19 08:25:22;;;;;;;7.97;4.72;;;;;;;;;;5071220;28;20449;-66
2021/09/19 08:29:10;;;;;;;8.60;4.57;;;;;;;;;;5111096;27;20473;-66
2021/09/19 08:33:49;;;;;;;9.60;4.72;;;;;;;;;;5111968;27;20512;-66
2021/09/19 08:36:18;;;;;;;8.07;3.72;;;;;;;;;;5110954;28;20480;-66
2021/09/19 08:39:38;;;;;;;8.77;4.55;;;;;;;;;;5112092;27;20392;-66
2021/09/19 08:42:04;;;;;;;9.25;4.63;;;;;;;;;;5111277;28;20028;-67
2021/09/19 08:46:32;;;;;;;8.40;4.20;;;;;;;;;;5112508;27;20912;-66
2021/09/19 08:48:58;;;;;;;7.00;4.13;;;;;;;;;;5111218;28;20488;-67
2021/09/19 08:51:25;;;;;;;8.63;4.65;;;;;;;;;;5109554;28;20051;-67
2021/09/19 08:53:51;;;;;;;10.48;5.05;;;;;;;;;;5111187;28;20054;-67
2021/09/19 08:58:37;;;;;;;8.65;4.68;;;;;;;;;;5110997;27;20426;-66
2021/09/19 09:03:36;;;;;;;9.10;4.40;;;;;;;;;;5112029;27;20884;-66
2021/09/19 09:06:03;;;;;;;11.32;5.65;;;;;;;;;;5110917;28;20483;-67
2021/09/19 09:08:31;;;;;;;12.00;6.10;;;;;;;;;;5109932;28;20433;-67
2021/09/19 09:10:59;;;;;;;9.57;5.53;;;;;;;;;;5110759;28;20020;-68
2021/09/19 09:13:36;;;;;;;10.05;5.78;;;;;;;;;;5111531;28;20020;-68
2021/09/19 09:19:10;;;;;;;9.52;5.57;;;;;;;;;;5111192;27;20787;-67
2021/09/19 09:21:36;;;;;;;10.98;6.25;;;;;;;;;;5111309;28;20069;-67
2021/09/19 09:24:03;;;;;;;9.48;5.32;;;;;;;;;;5111225;28;20494;-67
2021/09/19 09:26:31;;;;;;;8.60;5.45;;;;;;;;;;5110850;28;20024;-67
2021/09/19 09:29:02;;;;;;;11.95;5.65;;;;;;;;;;5111150;28;20016;-67
2021/09/19 09:31:34;;;;;;;10.00;5.88;;;;;;;;;;5111139;28;20103;-67
2021/09/19 09:34:03;;;;;;;9.83;5.57;;;;;;;;;;5110625;28;20016;-67
2021/09/19 09:36:58;;;;;;;9.13;4.97;;;;;;;;;;5111602;27;20393;-67
2021/09/19 09:40:37;;;;;;;7.47;4.72;;;;;;;;;;5111132;27;20451;-67
2021/09/19 09:44:59;;;;;;;9.38;5.65;;;;;;;;;;5132257;27;20317;-67
2021/09/19 09:49:40;;;;;;;7.32;4.47;;;;;;;;;;5111781;27;20389;-66
2021/09/19 09:52:12;;;;;;;8.48;4.50;;;;;;;;;;5111273;28;20028;-66
2021/09/19 09:54:43;;;;;;;9.35;5.47;;;;;;;;;;5111067;28;20054;-67
2021/09/19 09:58:13;;;;;;;6.47;4.05;;;;;;;;;;5111393;27;20400;-66
2021/09/19 10:00:39;;;;;;;8.80;3.78;;;;;;;;;;5110982;28;20036;-67
2021/09/19 10:03:06;;;;;;;7.57;3.92;;;;;;;;;;5111244;28;20024;-67
2021/09/19 10:05:33;;;;;;;8.50;3.63;;;;;;;;;;5111253;28;20024;-67
2021/09/19 10:07:59;;;;;;;7.90;4.35;;;;;;;;;;5110690;28;20024;-67
2021/09/19 10:10:27;;;;;;;7.60;3.42;;;;;;;;;;5111503;28;20480;-67
2021/09/19 10:12:53;;;;;;;6.70;3.47;;;;;;;;;;5111023;28;20513;-67
2021/09/19 10:15:20;;;;;;;7.63;3.92;;;;;;;;;;5110706;28;20049;-67
2021/09/19 10:18:51;;;;;;;7.43;3.28;;;;;;;;;;5111880;27;20420;-67
2021/09/19 10:21:18;;;;;;;8.23;3.20;;;;;;;;;;5110900;28;20020;-67
2021/09/19 10:23:45;;;;;;;6.28;3.58;;;;;;;;;;5109485;28;20031;-67
2021/09/19 10:26:18;;;;;;;4.90;2.78;;;;;;;;;;5110867;28;20024;-67
2021/09/19 10:30:30;;;;;;;8.60;2.92;;;;;;;;;;5071109;28;20457;-66
2021/09/19 10:33:00;;;;;;;5.88;3.55;;;;;;;;;;5070361;28;20382;-67
2021/09/19 10:35:26;;;;;;;5.93;3.22;;;;;;;;;;5069950;28;20020;-66
2021/09/19 10:37:53;;;;;;;6.53;3.25;;;;;;;;;;5070257;28;20129;-66
2021/09/19 10:40:31;;;;;;;6.20;3.78;;;;;;;;;;5070752;28;20023;-66
2021/09/19 10:42:57;;;;;;;8.55;3.83;;;;;;;;;;5070161;28;20029;-66
2021/09/19 10:46:03;;;;;;;6.40;3.35;;;;;;;;;;5112100;27;20396;-68
2021/09/19 10:48:31;;;;;;;7.13;3.60;;;;;;;;;;5111302;28;20353;-68
2021/09/19 10:51:04;;;;;;;5.50;3.47;;;;;;;;;;5110796;28;20020;-68
2021/09/19 10:53:30;;;;;;;;;;;;;;;;;;5110218;28;20047;-67
2021/09/19 10:55:57;;;;;;;;;;;;;;;;;;5111608;28;19904;-68
2021/09/19 10:58:23;;;;;;;;;;;;;;;;;;5111141;28;19930;-68
2021/09/19 11:03:09;;;;;;;;;;;;;;;;;;5111777;27;19912;-66
2021/09/19 11:05:35;;;;;;;;;;;;;;;;;;5111955;28;19912;-66
2021/09/19 11:08:01;;;;;;;;;;;;;;;;;;5111764;28;19954;-67
2021/09/19 11:10:27;;;;;;;;;;;;;;;;;;5111453;28;20377;-67
2021/09/19 11:12:53;;;;;;;;;;;;;;;;;;5110327;28;19912;-67
2021/09/19 11:15:19;;;;;;;;;;;;;;;;;;5111549;28;19919;-67
2021/09/19 11:17:45;;;;;;;;;;;;;;;;;;5111248;28;20328;-67
2021/09/19 11:20:14;;;;;;;;;;;;;;;;;;5111440;28;19908;-67
2021/09/19 11:24:24;;;;;;;;;;;;;;;;;;5112206;27;19912;-67
2021/09/19 11:26:52;;;;;;;3.13;1.92;;;;;;;;;;5111599;28;19912;-67
2021/09/19 11:31:14;;;;;;;10.32;2.88;;;;;;;;;;5112057;27;20397;-67
2021/09/19 11:33:40;;;;;;;6.45;3.65;;;;;;;;;;5110888;28;20046;-67
2021/09/19 11:36:10;;;;;;;5.50;3.03;;;;;;;;;;5111205;28;20027;-67
2021/09/19 11:38:37;;;;;;;5.50;3.30;;;;;;;;;;5111041;28;20024;-67
2021/09/19 11:41:05;;;;;;;5.63;2.83;;;;;;;;;;5110977;28;20051;-67
2021/09/19 11:43:38;;;;;;;5.68;3.25;;;;;;;;;;5109810;28;20026;-67
2021/09/19 11:46:12;;;;;;;7.30;2.83;;;;;;;;;;5109457;28;20028;-67
2021/09/19 11:48:39;;;;;;;10.00;3.38;;;;;;;;;;5111073;28;20463;-66
2021/09/19 11:51:06;;;;;;;11.20;3.65;;;;;;;;;;5110922;28;20123;-67
2021/09/19 11:53:33;;;;;;;6.75;3.08;;;;;;;;;;5110737;28;20119;-68
2021/09/19 11:55:59;;;;;;;7.47;3.25;;;;;;;;;;5109571;28;20024;-67
2021/09/19 11:58:25;;;;;;;7.97;3.97;;;;;;;;;;5109541;28;20072;-67
2021/09/19 12:00:56;;;;;;;7.57;3.38;;;;;;;;;;5110476;28;20027;-68
2021/09/19 12:03:23;;;;;;;9.93;3.42;;;;;;;;;;5110782;28;20384;-68
2021/09/19 12:05:56;;;;;;;5.65;3.00;;;;;;;;;;5110807;28;20024;-67
2021/09/19 12:08:24;;;;;;;5.70;3.13;;;;;;;;;;5110637;28;20484;-68
2021/09/19 12:10:50;;;;;;;7.18;2.72;;;;;;;;;;5110522;28;20046;-67
2021/09/19 12:13:27;;;;;;;6.57;3.08;;;;;;;;;;5110607;28;20020;-67
2021/09/19 12:16:13;;;;;;;6.05;3.17;;;;;;;;;;5110093;28;20388;-67
2021/09/19 12:18:44;;;;;;;5.97;2.97;;;;;;;;;;5110790;28;20047;-67
2021/09/19 12:21:10;;;;;;;6.75;3.40;;;;;;;;;;5110102;28;20099;-67
2021/09/19 12:23:41;;;;;;;5.18;2.70;;;;;;;;;;5110468;28;20023;-68
2021/09/19 12:26:11;;;;;;;6.03;3.28;;;;;;;;;;5109055;28;20104;-67
2021/09/19 12:28:40;;;;;;;6.22;3.13;;;;;;;;;;5109933;28;20020;-68
2021/09/19 12:31:06;;;;;;;4.95;2.92;;;;;;;;;;5109983;28;20130;-67
2021/09/19 12:33:32;;;;;;;5.47;2.80;;;;;;;;;;5110183;28;20016;-67
2021/09/19 12:35:59;;;;;;;5.22;2.80;;;;;;;;;;5109767;28;20024;-68
2021/09/19 12:38:26;;;;;;;5.80;2.90;;;;;;;;;;5110220;28;20024;-68
2021/09/19 12:41:01;;;;;;;5.32;2.50;;;;;;;;;;5105990;28;20353;-68
2021/09/19 12:43:29;;;;;;;7.32;2.92;;;;;;;;;;5094866;28;20028;-69
2021/09/19 12:45:55;;;;;;;4.75;2.70;;;;;;;;;;5096454;28;20020;-67
2021/09/19 12:48:25;;;;;;;6.97;2.72;;;;;;;;;;5096402;28;20032;-68
2021/09/19 12:50:58;;;;;;;6.32;2.92;;;;;;;;;;5095977;28;20445;-68
2021/09/19 12:53:26;;;;;;;7.95;2.75;;;;;;;;;;5096496;28;20024;-68
2021/09/19 12:55:52;;;;;;;7.25;2.38;;;;;;;;;;5094523;28;20032;-68
2021/09/19 12:58:19;;;;;;;6.47;2.67;;;;;;;;;;5096514;28;20069;-68
2021/09/19 13:00:46;;;;;;;7.38;2.70;;;;;;;;;;5096369;28;20024;-68
2021/09/19 13:03:13;;;;;;;9.07;2.25;;;;;;;;;;5095647;28;20020;-68
2021/09/19 13:05:40;;;;;;;6.43;2.65;;;;;;;;;;5096019;28;20089;-68
2021/09/19 13:08:06;;;;;;;5.70;2.50;;;;;;;;;;5096349;28;20031;-68
2021/09/19 13:10:32;;;;;;;8.10;2.83;;;;;;;;;;5095523;28;20161;-68
2021/09/19 13:12:59;;;;;;;13.77;3.72;;;;;;;;;;5095862;28;20085;-68
2021/09/19 13:15:25;;;;;;;4.75;2.42;;;;;;;;;;5095834;28;20107;-68
2021/09/19 13:17:52;;;;;;;5.13;2.42;;;;;;;;;;5095486;28;20066;-68
2021/09/19 13:20:18;;;;;;;7.25;2.33;;;;;;;;;;5094480;28;20045;-68
2021/09/19 13:22:44;;;;;;;7.55;2.17;;;;;;;;;;5096124;28;20358;-68
2021/09/19 13:25:11;;;;;;;5.13;2.58;;;;;;;;;;5095223;28;20028;-68
2021/09/19 13:27:37;;;;;;;8.05;2.80;;;;;;;;;;5095608;28;20032;-68
2021/09/19 13:30:04;;;;;;;4.32;2.25;;;;;;;;;;5095251;28;20040;-68
2021/09/19 13:32:30;;;;;;;6.15;2.80;;;;;;;;;;5093899;28;20027;-68
2021/09/19 13:34:56;;;;;;;9.35;2.95;;;;;;;;;;5094150;28;20103;-68
2021/09/19 13:37:22;;;;;;;5.43;2.50;;;;;;;;;;5095636;28;20420;-68
2021/09/19 13:39:49;;;;;;;6.82;2.83;;;;;;;;;;5095019;28;20068;-68
2021/09/19 13:42:15;;;;;;;8.25;2.75;;;;;;;;;;5095331;28;20070;-68
2021/09/19 13:44:42;;;;;;;7.18;2.53;;;;;;;;;;5095203;28;20020;-67
2021/09/19 13:47:08;;;;;;;7.80;2.20;;;;;;;;;;5094751;28;20496;-67
2021/09/19 13:49:34;;;;;;;7.50;2.20;;;;;;;;;;5094989;28;20114;-67
2021/09/19 13:52:01;;;;;;;6.60;3.08;;;;;;;;;;5093195;28;20116;-67
2021/09/19 13:54:30;;;;;;;5.43;2.25;;;;;;;;;;5094255;28;20049;-68
2021/09/19 13:56:56;;;;;;;4.47;2.00;;;;;;;;;;5094877;28;20478;-68
2021/09/19 13:59:23;;;;;;;5.95;2.10;;;;;;;;;;5094533;28;20499;-67
2021/09/19 14:01:53;;;;;;;5.03;2.30;;;;;;;;;;5095102;28;20039;-68
2021/09/19 14:04:24;;;;;;;4.72;2.25;;;;;;;;;;5094896;28;20099;-68
2021/09/19 14:06:50;;;;;;;6.72;2.78;;;;;;;;;;5094493;28;20020;-69
2021/09/19 14:09:17;;;;;;;5.85;2.20;;;;;;;;;;5093368;28;20492;-68
2021/09/19 14:11:43;;;;;;;5.40;2.53;;;;;;;;;;5093404;28;20073;-68
2021/09/19 14:14:09;;;;;;;6.28;3.30;;;;;;;;;;5094286;28;20055;-67
2021/09/19 14:16:36;;;;;;;4.80;2.05;;;;;;;;;;5094632;28;20026;-68
2021/09/19 14:19:04;;;;;;;7.28;3.78;;;;;;;;;;5094494;28;20103;-69
2021/09/19 14:21:32;;;;;;;5.63;2.15;;;;;;;;;;5092822;28;20051;-68
2021/09/19 14:23:58;;;;;;;6.13;2.65;;;;;;;;;;5094444;28;20028;-67
2021/09/19 14:26:24;;;;;;;6.78;2.55;;;;;;;;;;5094383;28;20353;-68
2021/09/19 14:28:50;;;;;;;6.35;2.20;;;;;;;;;;5093906;28;20028;-68
2021/09/19 14:31:17;;;;;;;4.40;2.10;;;;;;;;;;5093124;28;20020;-68
2021/09/19 14:33:43;;;;;;;6.32;2.00;;;;;;;;;;5094278;28;20028;-67
2021/09/19 14:36:10;;;;;;;5.45;2.22;;;;;;;;;;5093962;28;20556;-69
2021/09/19 14:38:36;;;;;;;4.03;2.00;;;;;;;;;;5094341;28;20026;-68
2021/09/19 14:41:03;;;;;;;5.07;2.22;;;;;;;;;;5094702;28;20024;-69
2021/09/19 14:43:36;;;;;;;6.55;2.45;;;;;;;;;;5093774;28;20426;-66
2021/09/19 14:46:03;;;;;;;6.40;2.28;;;;;;;;;;5094468;28;20484;-68
2021/09/19 14:48:29;;;;;;;8.05;2.47;;;;;;;;;;5093728;28;20024;-67
2021/09/19 14:50:55;;;;;;;6.38;2.75;;;;;;;;;;5094111;28;20043;-68
2021/09/19 14:53:22;;;;;;;4.10;2.10;;;;;;;;;;5093942;28;20069;-68
2021/09/19 14:55:48;;;;;;;6.75;2.50;;;;;;;;;;5093532;28;20020;-68
2021/09/19 14:58:15;;;;;;;3.67;2.20;;;;;;;;;;5093937;28;20031;-68
2021/09/19 15:00:41;;;;;;;7.63;2.78;;;;;;;;;;5093925;28;20016;-68
2021/09/19 15:03:10;;;;;;;11.48;3.40;;;;;;;;;;5093607;28;20020;-69
2021/09/19 15:05:37;;;;;;;13.00;2.85;;;;;;;;;;5093889;28;20020;-68
2021/09/19 15:08:03;;;;;;;6.05;2.60;;;;;;;;;;5094001;28;20034;-68
2021/09/19 15:10:29;;;;;;;6.53;2.03;;;;;;;;;;5093375;28;20054;-67
2021/09/19 15:12:56;;;;;;;5.18;2.58;;;;;;;;;;5093699;28;20024;-67
2021/09/19 15:15:22;;;;;;;5.28;2.50;;;;;;;;;;5092384;28;20197;-68
2021/09/19 15:17:48;;;;;;;5.00;1.77;;;;;;;;;;5093243;28;20023;-68
2021/09/19 15:20:15;;;;;;;5.93;2.22;;;;;;;;;;5094024;28;20024;-68
2021/09/19 15:22:42;;;;;;;7.70;2.55;;;;;;;;;;5092217;28;20024;-68
2021/09/19 15:25:08;;;;;;;5.57;2.47;;;;;;;;;;5093188;28;20099;-68
2021/09/19 15:27:35;;;;;;;10.90;2.30;;;;;;;;;;5093417;28;20484;-67
2021/09/19 15:30:01;;;;;;;7.43;2.17;;;;;;;;;;5093115;28;20145;-67
2021/09/19 15:32:27;;;;;;;5.97;2.75;;;;;;;;;;5092994;28;20032;-67
2021/09/19 15:34:53;;;;;;;6.28;2.65;;;;;;;;;;5093341;28;20024;-67
2021/09/19 15:37:20;;;;;;;5.15;2.15;;;;;;;;;;5093999;28;20491;-67
2021/09/19 15:39:46;;;;;;;5.63;2.75;;;;;;;;;;5093026;28;20028;-68
2021/09/19 15:42:12;;;;;;;6.03;3.05;;;;;;;;;;5093363;28;20035;-68
2021/09/19 15:44:38;;;;;;;8.27;2.50;;;;;;;;;;5093474;28;20021;-69
2021/09/19 15:47:04;;;;;;;8.55;2.83;;;;;;;;;;5092926;28;20028;-68
2021/09/19 15:49:32;;;;;;;4.95;2.50;;;;;;;;;;5093258;28;20043;-68
2021/09/19 15:51:58;;;;;;;11.50;2.35;;;;;;;;;;5092948;28;20016;-68
2021/09/19 15:54:25;;;;;;;6.85;1.98;;;;;;;;;;5092048;28;20481;-68
2021/09/19 15:56:51;;;;;;;5.25;2.17;;;;;;;;;;5093257;28;20028;-68
2021/09/19 15:59:18;;;;;;;6.75;2.17;;;;;;;;;;5092888;28;20027;-68
2021/09/19 16:01:44;;;;;;;6.57;2.45;;;;;;;;;;5093735;28;20514;-68
2021/09/19 16:04:13;;;;;;;7.95;3.08;;;;;;;;;;5093234;28;20077;-67
2021/09/19 16:06:39;;;;;;;12.77;5.85;;;;;;;;;;5091441;28;20031;-68
2021/09/19 16:09:06;;;;;;;18.92;8.98;;;;;;;;;;5093109;28;20070;-68
2021/09/19 16:11:33;;;;;;;27.73;14.13;;;;;;;;;;5093152;28;20028;-68
2021/09/19 16:13:59;;;;;;;21.48;10.90;;;;;;;;;;5091325;28;20460;-68
2021/09/19 16:16:25;;;;;;;56.33;29.00;;;;;;;;;;5094643;28;20026;-68
2021/09/19 16:18:51;;;;;;;73.07;35.05;;;;;;;;;;5096893;28;20369;-68
2021/09/19 16:21:17;;;;;;;28.92;14.25;;;;;;;;;;5096556;28;20012;-67
2021/09/19 16:23:44;;;;;;;13.20;7.07;;;;;;;;;;5097075;28;20028;-68
2021/09/19 16:26:10;;;;;;;11.82;5.53;;;;;;;;;;5097052;28;20024;-67
2021/09/19 16:28:36;;;;;;;11.38;4.55;;;;;;;;;;5096533;28;20032;-67
2021/09/19 16:31:02;;;;;;;8.90;3.40;;;;;;;;;;5096442;28;20076;-68
2021/09/19 16:33:28;;;;;;;7.38;3.42;;;;;;;;;;5095389;28;20026;-68
2021/09/19 16:35:55;;;;;;;9.77;2.92;;;;;;;;;;5096342;28;20039;-67
2021/09/19 16:38:21;;;;;;;12.52;3.67;;;;;;;;;;5096674;28;20132;-67
2021/09/19 16:40:47;;;;;;;6.93;2.90;;;;;;;;;;5097078;28;20469;-68
2021/09/19 16:43:13;;;;;;;5.35;2.33;;;;;;;;;;5096042;28;20031;-67
2021/09/19 16:45:40;;;;;;;8.77;3.42;;;;;;;;;;5096380;28;20016;-67
2021/09/19 16:48:07;;;;;;;9.20;4.65;;;;;;;;;;5094701;28;20030;-68
2021/09/19 16:50:33;;;;;;;10.13;5.60;;;;;;;;;;5096407;28;20036;-67
2021/09/19 16:53:51;;;;;;;12.73;5.95;;;;;;;;;;5111544;27;20965;-66
2021/09/19 16:56:17;;;;;;;10.93;5.47;;;;;;;;;;5110890;28;20517;-67
2021/09/19 16:59:45;;;;;;;11.07;5.75;;;;;;;;;;5111355;27;20419;-68